Time;durP1;ratioP1;P1;durP2;ratioP2;P2;SDS_P1;SDS_P2;PMS_P1;PMS_P2;Temp;Humidity;BMP_temperature;BMP_pressure;BME280_temperature;BME280_humidity;BME280_pressure;Samples;Min_cycle;Max_cycle;Signal;HPM_P1;HPM_P2
2023/05/19 00:01:23;;;;;;;11.50;4.63;;;;;;;10.83;72.05;102895.38;7393590;19;20010;-51
2023/05/19 00:03:57;;;;;;;10.35;4.10;;;;;;;10.80;71.94;102898.16;7390001;19;20026;-51
2023/05/19 00:06:28;;;;;;;10.48;4.53;;;;;;;10.66;72.87;102901.38;7392237;19;20348;-50
2023/05/19 00:09:03;;;;;;;14.52;5.07;;;;;;;10.85;72.19;102891.75;7392088;19;20499;-49
2023/05/19 00:11:30;;;;;;;11.20;4.93;;;;;;;10.92;71.65;102892.38;7393431;19;20527;-48
2023/05/19 00:13:59;;;;;;;11.88;5.00;;;;;;;10.97;71.56;102893.03;7392411;19;20359;-49
2023/05/19 00:16:28;;;;;;;11.25;4.57;;;;;;;10.95;71.33;102895.78;7391863;19;20026;-50
2023/05/19 00:18:59;;;;;;;12.20;4.90;;;;;;;10.57;72.31;102899.94;7391907;19;20035;-48
2023/05/19 00:21:27;;;;;;;11.90;4.78;;;;;;;10.29;73.61;102893.97;7393269;19;20081;-48
2023/05/19 00:23:55;;;;;;;10.60;4.75;;;;;;;10.25;73.73;102898.53;7392507;19;20022;-50
2023/05/19 00:26:23;;;;;;;13.30;4.72;;;;;;;10.23;73.73;102895.91;7391161;19;20014;-47
2023/05/19 00:28:50;;;;;;;12.40;4.70;;;;;;;10.48;72.82;102892.34;7392307;19;20018;-48
2023/05/19 00:31:17;;;;;;;12.25;5.25;;;;;;;10.59;72.17;102892.78;7392371;19;20022;-50
2023/05/19 00:33:44;;;;;;;11.43;4.75;;;;;;;10.67;71.53;102897.78;7392011;19;20025;-50
2023/05/19 00:36:12;;;;;;;10.05;4.60;;;;;;;10.68;71.92;102889.78;7391276;19;20022;-50
2023/05/19 00:38:39;;;;;;;9.60;4.88;;;;;;;10.70;71.71;102884.41;7391302;19;20015;-49
2023/05/19 00:41:06;;;;;;;12.38;5.28;;;;;;;10.74;71.33;102899.28;7392468;19;20014;-51
2023/05/19 00:43:33;;;;;;;12.68;4.88;;;;;;;10.69;71.31;102899.47;7392108;19;20022;-52
2023/05/19 00:46:01;;;;;;;12.43;4.53;;;;;;;10.69;71.30;102896.81;7390016;19;20014;-51
2023/05/19 00:48:28;;;;;;;10.07;5.50;;;;;;;10.61;71.20;102900.69;7390516;19;20122;-51
2023/05/19 00:51:00;;;;;;;11.25;5.60;;;;;;;10.15;72.36;102897.09;7391980;19;20506;-50
2023/05/19 00:53:29;;;;;;;12.02;5.45;;;;;;;9.80;73.83;102893.97;7391783;19;20014;-49
2023/05/19 00:55:57;;;;;;;9.43;4.88;;;;;;;10.06;73.38;102886.88;7390270;19;20026;-52
2023/05/19 00:58:28;;;;;;;11.30;5.47;;;;;;;10.20;72.68;102888.06;7390784;19;20021;-51
2023/05/19 01:01:01;;;;;;;11.85;5.07;;;;;;;10.35;72.25;102891.97;7391903;19;20021;-51
2023/05/19 01:03:34;;;;;;;10.82;4.78;;;;;;;10.42;71.70;102889.94;7391098;19;20082;-50
2023/05/19 01:06:06;;;;;;;12.75;5.35;;;;;;;10.38;71.51;102889.19;7390151;19;20630;-50
2023/05/19 01:08:36;;;;;;;9.30;4.75;;;;;;;10.36;71.87;102879.56;7390390;19;20037;-49
2023/05/19 01:11:07;;;;;;;12.65;5.05;;;;;;;10.42;71.28;102880.22;7391422;19;20448;-51
2023/05/19 01:13:35;;;;;;;11.88;5.15;;;;;;;10.39;71.38;102882.97;7389494;19;20014;-50
2023/05/19 01:16:11;;;;;;;10.75;4.78;;;;;;;10.44;71.13;102888.94;7385844;19;20022;-50
2023/05/19 01:19:11;;;;;;;13.07;5.25;;;;;;;10.37;71.22;102890.09;7390549;19;20501;-50
2023/05/19 01:21:44;;;;;;;12.07;5.47;;;;;;;10.17;71.68;102890.84;7391098;19;20015;-50
2023/05/19 01:24:49;;;;;;;13.80;6.10;;;;;;;10.20;71.45;102889.88;7390426;19;20459;-52
2023/05/19 01:27:35;;;;;;;;;;;;;;;10.01;72.48;102892.34;7389472;19;20275;-51
2023/05/19 01:30:22;;;;;;;11.13;5.72;;;;;;;10.07;71.81;102899.16;7389159;19;19927;-51
2023/05/19 01:32:53;;;;;;;13.05;5.57;;;;;;;10.09;71.44;102897.34;7391302;19;20027;-48
2023/05/19 01:35:23;;;;;;;10.73;5.45;;;;;;;10.09;71.58;102892.06;7388807;19;20025;-51
2023/05/19 01:37:55;;;;;;;10.05;5.50;;;;;;;10.16;71.08;102885.59;7390905;19;20018;-48
2023/05/19 01:40:24;;;;;;;12.82;6.03;;;;;;;10.11;70.88;102888.44;7388021;19;20081;-52
2023/05/19 01:42:52;;;;;;;11.15;5.57;;;;;;;10.08;70.96;102882.38;7391570;19;20014;-51
2023/05/19 01:45:23;;;;;;;11.68;5.50;;;;;;;10.04;70.97;102880.78;7387945;19;20035;-50
2023/05/19 01:47:56;;;;;;;11.35;5.75;;;;;;;10.04;70.41;102879.00;7388501;19;20101;-50
2023/05/19 01:50:24;;;;;;;13.63;6.10;;;;;;;9.99;70.51;102878.28;7388849;19;20011;-50
2023/05/19 01:52:52;;;;;;;11.43;6.10;;;;;;;9.99;70.08;102883.56;7390025;19;20032;-49
2023/05/19 01:55:22;;;;;;;11.82;5.70;;;;;;;9.93;70.06;102889.97;7387870;19;20118;-51
2023/05/19 01:58:40;;;;;;;11.48;5.22;;;;;;;10.05;69.46;102893.09;7390577;19;20047;-50
2023/05/19 02:01:31;;;;;;;11.68;5.40;;;;;;;9.90;69.69;102886.56;7387401;19;20010;-51
2023/05/19 02:04:53;;;;;;;11.20;5.15;;;;;;;9.91;69.27;102886.50;7389140;19;20046;-49
2023/05/19 02:07:31;;;;;;;12.48;5.80;;;;;;;9.79;69.64;102886.94;7384153;19;20015;-51
2023/05/19 02:10:09;;;;;;;12.30;5.88;;;;;;;9.84;69.50;102885.00;7388368;19;20555;-49
2023/05/19 02:12:39;;;;;;;12.25;5.63;;;;;;;9.88;69.14;102886.63;7389816;19;20036;-51
2023/05/19 02:15:10;;;;;;;10.98;5.30;;;;;;;9.88;68.85;102886.63;7387283;19;20050;-48
2023/05/19 02:17:40;;;;;;;11.38;5.43;;;;;;;9.90;68.64;102891.88;7387944;19;20053;-49
2023/05/19 02:20:08;;;;;;;12.40;5.40;;;;;;;9.80;68.76;102886.03;7388739;19;20019;-47
2023/05/19 02:22:35;;;;;;;12.23;5.68;;;;;;;9.79;68.88;102886.94;7389461;19;20103;-47
2023/05/19 02:25:03;;;;;;;15.60;5.90;;;;;;;9.72;68.71;102886.31;7388701;19;20011;-48
2023/05/19 02:27:30;;;;;;;11.82;5.85;;;;;;;9.66;69.04;102888.31;7389373;19;20039;-48
2023/05/19 02:29:57;;;;;;;9.88;5.57;;;;;;;9.67;69.05;102884.75;7395210;19;20098;-50
2023/05/19 02:32:24;;;;;;;11.43;5.88;;;;;;;9.66;68.91;102893.63;7396550;19;20022;-49
2023/05/19 02:34:52;;;;;;;13.70;5.90;;;;;;;9.63;68.67;102893.72;7394893;19;20022;-49
2023/05/19 02:37:22;;;;;;;13.07;5.50;;;;;;;9.77;68.16;102888.81;7394080;19;20019;-48
2023/05/19 02:39:49;;;;;;;11.75;5.75;;;;;;;9.69;68.51;102890.84;7394414;19;20015;-52
2023/05/19 02:42:17;;;;;;;10.32;5.53;;;;;;;9.58;68.61;102893.00;7396068;19;20022;-51
2023/05/19 02:44:44;;;;;;;13.10;6.28;;;;;;;9.47;68.62;102890.75;7393652;19;20015;-51
2023/05/19 02:47:12;;;;;;;9.52;5.50;;;;;;;9.43;68.99;102891.78;7391724;19;20018;-52
2023/05/19 02:49:39;;;;;;;10.32;5.32;;;;;;;9.44;68.76;102888.19;7393105;19;20019;-50
2023/05/19 02:52:06;;;;;;;11.00;5.68;;;;;;;9.53;68.30;102888.72;7394699;19;20032;-47
2023/05/19 02:54:34;;;;;;;12.63;5.53;;;;;;;9.64;67.92;102888.34;7393583;19;20487;-50
2023/05/19 02:57:01;;;;;;;13.35;6.20;;;;;;;9.64;68.03;102879.56;7393973;19;20022;-48
2023/05/19 02:59:28;;;;;;;11.25;6.20;;;;;;;9.64;67.86;102880.41;7393711;19;20006;-52
2023/05/19 03:01:59;;;;;;;12.93;5.85;;;;;;;9.60;68.19;102883.25;7395929;19;20059;-51
2023/05/19 03:04:27;;;;;;;10.85;6.13;;;;;;;9.56;68.15;102884.25;7393658;19;20060;-49
2023/05/19 03:06:54;;;;;;;11.50;5.60;;;;;;;9.55;68.06;102886.06;7393017;19;20508;-47
2023/05/19 03:09:21;;;;;;;12.25;5.90;;;;;;;9.55;68.00;102886.06;7394526;19;20007;-52
2023/05/19 03:11:48;;;;;;;11.95;5.40;;;;;;;9.46;68.21;102879.31;7395591;19;20015;-52
2023/05/19 03:14:15;;;;;;;14.05;6.10;;;;;;;9.47;68.12;102880.16;7395234;19;20018;-51
2023/05/19 03:16:42;;;;;;;12.57;6.57;;;;;;;9.40;68.20;102876.00;7392900;19;20068;-52
2023/05/19 03:19:09;;;;;;;13.95;6.25;;;;;;;9.42;67.94;102869.72;7393696;19;20015;-51
2023/05/19 03:21:36;;;;;;;12.43;5.72;;;;;;;9.40;68.33;102870.72;7392307;19;20498;-52
2023/05/19 03:24:04;;;;;;;10.88;5.20;;;;;;;9.36;68.00;102869.09;7394056;19;20650;-51
2023/05/19 03:26:31;;;;;;;10.80;6.47;;;;;;;9.39;68.24;102871.66;7388662;19;20018;-51
2023/05/19 03:28:58;;;;;;;14.05;5.82;;;;;;;9.35;68.02;102876.16;7393354;19;20015;-51
2023/05/19 03:31:25;;;;;;;11.75;6.05;;;;;;;9.38;68.28;102873.41;7392482;19;20489;-50
2023/05/19 03:33:52;;;;;;;12.55;6.20;;;;;;;9.35;68.00;102876.16;7393968;19;20014;-48
2023/05/19 03:36:20;;;;;;;10.25;5.78;;;;;;;9.41;67.94;102873.28;7391889;19;20030;-51
2023/05/19 03:38:48;;;;;;;10.70;5.72;;;;;;;9.37;67.91;102873.47;7390982;19;20011;-52
2023/05/19 03:41:15;;;;;;;12.65;6.50;;;;;;;9.25;68.00;102869.47;7394079;19;20114;-51
2023/05/19 03:43:42;;;;;;;11.43;6.20;;;;;;;9.11;68.50;102867.28;7394663;19;20011;-48
2023/05/19 03:46:09;;;;;;;11.82;6.00;;;;;;;9.11;68.36;102874.34;7392353;19;20027;-52
2023/05/19 03:48:36;;;;;;;11.23;6.40;;;;;;;9.09;68.40;102877.03;7391024;19;20014;-51
2023/05/19 03:51:03;;;;;;;12.93;6.20;;;;;;;9.02;68.89;102876.38;7393704;19;20014;-52
2023/05/19 03:53:30;;;;;;;12.32;6.40;;;;;;;9.06;68.40;102878.94;7394049;19;20121;-46
2023/05/19 03:55:58;;;;;;;10.10;6.05;;;;;;;9.00;68.58;102872.94;7391643;19;20026;-48
2023/05/19 03:58:25;;;;;;;12.23;6.22;;;;;;;9.05;68.64;102878.06;7392762;19;20019;-51
2023/05/19 04:00:52;;;;;;;11.10;6.60;;;;;;;9.03;68.28;102883.38;7391770;19;20018;-49
2023/05/19 04:03:19;;;;;;;14.15;6.03;;;;;;;9.04;68.12;102884.25;7393162;19;20587;-52
2023/05/19 04:05:47;;;;;;;12.30;5.97;;;;;;;8.99;68.29;102883.53;7392289;19;20018;-47
2023/05/19 04:08:14;;;;;;;11.77;5.93;;;;;;;9.02;68.35;102881.66;7392067;19;20018;-51
2023/05/19 04:10:41;;;;;;;11.10;6.35;;;;;;;8.98;68.41;102887.09;7392564;19;20025;-51
2023/05/19 04:13:08;;;;;;;12.38;6.53;;;;;;;9.08;68.18;102882.38;7391679;19;20022;-47
2023/05/19 04:15:35;;;;;;;12.93;6.70;;;;;;;9.10;67.96;102885.84;7391537;19;20039;-47
2023/05/19 04:18:02;;;;;;;10.88;5.97;;;;;;;9.03;68.11;102879.88;7392637;19;20078;-48
2023/05/19 04:20:30;;;;;;;13.13;6.95;;;;;;;8.96;68.22;102881.00;7392379;19;20380;-49
2023/05/19 04:22:57;;;;;;;13.30;6.25;;;;;;;8.98;68.19;102884.47;7392934;19;20023;-49
2023/05/19 04:25:24;;;;;;;12.35;6.53;;;;;;;8.93;68.67;102883.72;7392124;19;20039;-53
2023/05/19 04:27:51;;;;;;;13.88;6.50;;;;;;;8.94;68.39;102883.69;7391230;19;20015;-51
2023/05/19 04:30:21;;;;;;;13.93;6.50;;;;;;;9.00;68.25;102879.97;7391628;19;20046;-52
2023/05/19 04:32:49;;;;;;;14.00;6.80;;;;;;;9.05;68.13;102886.00;7392304;19;20019;-54
2023/05/19 04:35:16;;;;;;;13.43;7.60;;;;;;;9.05;67.99;102888.63;7389345;19;20082;-51
2023/05/19 04:37:47;;;;;;;12.73;7.75;;;;;;;9.12;68.09;102890.16;7392395;19;20027;-51
2023/05/19 04:40:14;;;;;;;14.77;9.27;;;;;;;9.06;68.08;102886.84;7391076;19;20050;-53
2023/05/19 04:42:44;;;;;;;14.73;8.88;;;;;;;9.01;68.19;102873.81;7391377;19;20018;-53
2023/05/19 04:45:12;;;;;;;13.35;7.93;;;;;;;9.09;68.22;102884.13;7389949;19;20019;-50
2023/05/19 04:47:40;;;;;;;12.82;7.78;;;;;;;9.08;67.87;102885.00;7391962;19;20113;-48
2023/05/19 04:50:09;;;;;;;12.88;7.00;;;;;;;9.10;68.19;102877.91;7390935;19;20108;-49
2023/05/19 04:52:36;;;;;;;13.93;6.38;;;;;;;9.19;67.81;102881.09;7389993;19;20010;-50
2023/05/19 04:55:04;;;;;;;11.65;6.28;;;;;;;9.17;67.89;102877.66;7389382;19;20526;-49
2023/05/19 04:57:31;;;;;;;13.32;7.10;;;;;;;9.13;67.90;102881.31;7390681;19;20018;-47
2023/05/19 05:00:01;;;;;;;12.93;6.53;;;;;;;9.12;68.10;102884.00;7390921;19;20022;-51
2023/05/19 05:02:28;;;;;;;10.65;6.18;;;;;;;9.20;67.88;102881.97;7389458;19;20018;-49
2023/05/19 05:04:55;;;;;;;13.20;6.88;;;;;;;9.19;68.02;102885.53;7390907;19;20022;-51
2023/05/19 05:07:22;;;;;;;12.65;6.53;;;;;;;9.15;68.17;102887.41;7389937;19;20366;-53
2023/05/19 05:09:50;;;;;;;12.00;6.70;;;;;;;9.21;68.13;102889.84;7390693;19;20010;-51
2023/05/19 05:12:18;;;;;;;12.18;7.25;;;;;;;9.26;67.98;102884.41;7390777;19;20462;-50
2023/05/19 05:14:45;;;;;;;12.27;6.88;;;;;;;9.26;67.75;102889.69;7388705;19;20018;-48
2023/05/19 05:17:12;;;;;;;11.70;6.95;;;;;;;9.22;67.84;102890.72;7383996;19;20228;-47
2023/05/19 05:19:40;;;;;;;14.25;6.80;;;;;;;9.34;67.86;102890.28;7389256;19;20015;-50
2023/05/19 05:22:07;;;;;;;12.57;7.07;;;;;;;9.36;67.74;102892.91;7392125;19;20039;-49
2023/05/19 05:24:35;;;;;;;13.45;6.32;;;;;;;9.28;67.80;102891.38;7390604;19;20015;-51
2023/05/19 05:27:02;;;;;;;12.75;6.97;;;;;;;9.35;67.73;102893.78;7389287;19;20039;-49
2023/05/19 05:29:29;;;;;;;13.30;6.55;;;;;;;9.40;67.41;102892.72;7387223;19;20388;-48
2023/05/19 05:31:57;;;;;;;13.48;6.95;;;;;;;9.49;67.88;102895.03;7390297;19;20493;-47
2023/05/19 05:34:24;;;;;;;14.45;6.95;;;;;;;9.62;67.24;102897.28;7389849;19;20130;-47
2023/05/19 05:36:51;;;;;;;14.52;6.68;;;;;;;9.49;67.73;102895.03;7388140;19;20439;-48
2023/05/19 05:39:18;;;;;;;13.20;6.55;;;;;;;9.58;67.99;102891.25;7387557;19;20014;-48
2023/05/19 05:41:46;;;;;;;11.50;6.55;;;;;;;9.68;67.64;102889.13;7390441;19;20401;-48
2023/05/19 05:44:13;;;;;;;11.88;6.20;;;;;;;9.81;67.34;102889.56;7388382;19;20022;-47
2023/05/19 05:46:40;;;;;;;14.10;7.03;;;;;;;9.84;67.59;102889.44;7388209;19;20095;-51
2023/05/19 05:49:07;;;;;;;11.90;6.13;;;;;;;9.88;67.28;102888.41;7388890;19;20364;-47
2023/05/19 05:51:35;;;;;;;11.88;6.45;;;;;;;9.98;67.21;102888.00;7390048;19;20349;-49
2023/05/19 05:54:05;;;;;;;10.25;5.93;;;;;;;10.01;67.25;102893.19;7388101;19;20035;-49
2023/05/19 05:56:33;;;;;;;12.57;5.60;;;;;;;10.07;67.00;102893.88;7387425;19;20025;-50
2023/05/19 05:59:01;;;;;;;13.32;6.50;;;;;;;10.08;67.00;102890.34;7386339;19;20018;-51
2023/05/19 06:01:29;;;;;;;12.18;5.57;;;;;;;10.14;67.19;102900.66;7389805;19;20015;-48
2023/05/19 06:03:59;;;;;;;13.88;5.78;;;;;;;10.17;66.83;102890.84;7397388;19;20023;-51
2023/05/19 06:06:26;;;;;;;11.13;5.47;;;;;;;10.28;67.03;102889.59;7395324;19;20024;-50
2023/05/19 06:08:53;;;;;;;13.75;6.30;;;;;;;10.38;66.66;102886.56;7396817;19;20018;-50
2023/05/19 06:11:20;;;;;;;11.15;5.68;;;;;;;10.41;66.52;102883.75;7397147;19;20022;-47
2023/05/19 06:13:47;;;;;;;13.25;5.57;;;;;;;10.41;66.58;102881.13;7396989;19;20022;-49
2023/05/19 06:16:15;;;;;;;12.77;6.25;;;;;;;10.48;66.76;102881.75;7392802;19;20022;-52
2023/05/19 06:18:42;;;;;;;13.73;6.05;;;;;;;10.64;66.90;102889.94;7396626;19;20015;-50
2023/05/19 06:21:12;;;;;;;10.85;5.82;;;;;;;10.67;66.92;102892.47;7396607;19;20081;-52
2023/05/19 06:23:39;;;;;;;11.25;5.47;;;;;;;10.67;67.02;102892.47;7397386;19;20022;-52
2023/05/19 06:26:06;;;;;;;11.68;5.63;;;;;;;10.80;66.63;102877.84;7393018;19;20018;-52
2023/05/19 06:28:34;;;;;;;11.82;5.80;;;;;;;10.89;66.16;102881.91;7393709;19;20018;-52
2023/05/19 06:31:01;;;;;;;12.57;5.90;;;;;;;10.96;66.48;102881.56;7394420;19;20035;-49
2023/05/19 06:33:28;;;;;;;11.93;5.60;;;;;;;10.91;66.37;102890.63;7396429;19;20082;-50
2023/05/19 06:35:55;;;;;;;13.85;5.47;;;;;;;10.98;66.52;102882.38;7394063;19;20041;-51
2023/05/19 06:38:22;;;;;;;13.35;5.68;;;;;;;11.12;66.34;102889.75;7393331;19;20026;-51
2023/05/19 06:40:49;;;;;;;12.13;6.18;;;;;;;11.17;66.34;102886.91;7396231;19;20480;-49
2023/05/19 06:43:16;;;;;;;13.98;5.80;;;;;;;11.19;66.25;102890.38;7395819;19;20023;-48
2023/05/19 06:45:43;;;;;;;12.43;5.53;;;;;;;11.22;66.40;102891.09;7395730;19;20441;-50
2023/05/19 06:48:10;;;;;;;14.57;5.88;;;;;;;11.34;66.65;102889.72;7393942;19;20047;-51
2023/05/19 06:50:38;;;;;;;12.38;5.97;;;;;;;11.41;66.71;102895.63;7393880;19;20023;-47
2023/05/19 06:53:05;;;;;;;11.23;5.53;;;;;;;11.45;66.59;102889.28;7395570;19;20018;-49
2023/05/19 06:55:32;;;;;;;12.70;5.40;;;;;;;11.50;66.06;102884.63;7395200;19;20014;-51
2023/05/19 06:58:02;;;;;;;14.20;5.75;;;;;;;11.56;66.34;102899.41;7395573;19;20033;-51
2023/05/19 07:00:29;;;;;;;12.00;5.85;;;;;;;11.63;65.92;102893.75;7395046;19;20022;-51
2023/05/19 07:02:57;;;;;;;11.85;5.38;;;;;;;11.67;65.97;102894.47;7395157;19;20380;-48
2023/05/19 07:05:24;;;;;;;11.00;5.65;;;;;;;11.76;65.70;102898.53;7394820;19;20492;-51
2023/05/19 07:07:51;;;;;;;11.82;6.38;;;;;;;11.88;65.88;102903.34;7393091;19;20033;-49
2023/05/19 07:10:20;;;;;;;10.35;5.88;;;;;;;11.94;66.02;102895.97;7393649;19;20085;-47
2023/05/19 07:12:47;;;;;;;12.52;6.22;;;;;;;11.99;65.68;102898.41;7393436;19;20022;-51
2023/05/19 07:15:14;;;;;;;11.90;5.82;;;;;;;11.96;66.11;102898.53;7394362;19;20019;-47
2023/05/19 07:17:41;;;;;;;13.70;5.40;;;;;;;11.98;65.69;102893.16;7392190;19;20018;-50
2023/05/19 07:20:09;;;;;;;13.18;5.70;;;;;;;12.02;65.12;102895.63;7394051;19;20022;-50
2023/05/19 07:22:37;;;;;;;13.70;5.38;;;;;;;12.10;65.59;102887.31;7394753;19;20050;-50
2023/05/19 07:25:06;;;;;;;12.82;6.03;;;;;;;12.20;65.49;102885.94;7393697;19;20015;-48
2023/05/19 07:27:33;;;;;;;11.82;5.47;;;;;;;12.25;65.42;102883.06;7392769;19;20010;-46
2023/05/19 07:30:00;;;;;;;12.38;5.13;;;;;;;12.33;65.06;102883.59;7393256;19;20502;-48
2023/05/19 07:32:27;;;;;;;11.35;5.32;;;;;;;12.36;64.51;102888.72;7394149;19;20018;-49
2023/05/19 07:34:54;;;;;;;14.00;5.47;;;;;;;12.36;65.09;102879.00;7393726;19;20957;-52
2023/05/19 07:37:21;;;;;;;11.40;5.45;;;;;;;12.41;64.70;102874.31;7392555;19;20493;-57
2023/05/19 07:39:48;;;;;;;12.00;5.72;;;;;;;12.49;64.56;102878.41;7392945;19;20022;-49
2023/05/19 07:42:15;;;;;;;13.70;5.40;;;;;;;12.51;64.48;102877.38;7393434;19;20035;-51
2023/05/19 07:44:42;;;;;;;12.27;5.43;;;;;;;12.57;64.36;102878.91;7394008;19;20520;-49
2023/05/19 07:47:09;;;;;;;12.55;5.15;;;;;;;12.63;64.06;102875.91;7390115;19;20523;-51
2023/05/19 07:49:37;;;;;;;10.18;4.93;;;;;;;12.75;63.83;102885.97;7391845;19;20018;-49
2023/05/19 07:52:04;;;;;;;13.00;4.72;;;;;;;12.82;63.50;102876.78;7393262;19;20011;-49
2023/05/19 07:54:31;;;;;;;16.92;5.15;;;;;;;12.85;62.86;102873.94;7392007;19;20038;-51
2023/05/19 07:56:58;;;;;;;11.05;4.38;;;;;;;12.92;62.85;102875.38;7391717;19;20060;-48
2023/05/19 07:59:25;;;;;;;11.43;4.43;;;;;;;12.96;62.98;102868.09;7392670;19;20018;-49
2023/05/19 08:01:52;;;;;;;11.20;4.05;;;;;;;13.08;62.41;102870.13;7392710;19;20017;-51
2023/05/19 08:04:19;;;;;;;13.40;4.40;;;;;;;13.10;61.72;102872.75;7394323;19;20029;-49
2023/05/19 08:06:46;;;;;;;11.10;4.20;;;;;;;13.14;61.58;102869.84;7390328;19;20475;-51
2023/05/19 08:09:13;;;;;;;9.73;3.53;;;;;;;13.25;61.29;102860.50;7392421;19;20022;-50
2023/05/19 08:11:40;;;;;;;8.82;3.95;;;;;;;13.23;60.98;102863.22;7393045;19;20096;-51
2023/05/19 08:14:07;;;;;;;10.95;3.83;;;;;;;13.28;61.14;102861.19;7392957;19;20120;-51
2023/05/19 08:16:35;;;;;;;11.10;3.80;;;;;;;13.37;61.25;102860.72;7391885;19;20022;-48
2023/05/19 08:19:04;;;;;;;10.65;3.92;;;;;;;13.41;61.01;102861.41;7391330;19;20022;-52
2023/05/19 08:21:34;;;;;;;12.23;4.43;;;;;;;13.47;60.90;102860.22;7393083;19;20483;-48
2023/05/19 08:24:01;;;;;;;11.52;4.40;;;;;;;13.50;60.50;102866.25;7392385;19;20032;-51
2023/05/19 08:26:28;;;;;;;11.90;4.40;;;;;;;13.53;60.84;102866.09;7387790;19;20101;-49
2023/05/19 08:28:55;;;;;;;14.18;4.50;;;;;;;13.51;60.86;102859.16;7392182;19;20519;-51
2023/05/19 08:31:23;;;;;;;12.02;3.78;;;;;;;13.62;61.11;102859.41;7392247;19;20519;-51
2023/05/19 08:33:51;;;;;;;10.07;3.92;;;;;;;13.68;61.24;102861.78;7392156;19;20022;-50
2023/05/19 08:36:18;;;;;;;9.30;3.58;;;;;;;13.78;60.97;102856.84;7391111;19;20403;-50
2023/05/19 08:38:45;;;;;;;13.13;4.20;;;;;;;13.86;60.24;102855.47;7391622;19;20097;-47
2023/05/19 08:41:12;;;;;;;12.63;3.60;;;;;;;13.87;60.19;102859.84;7392615;19;20035;-49
2023/05/19 08:43:39;;;;;;;11.20;3.50;;;;;;;13.95;59.87;102850.59;7389722;19;20011;-49
2023/05/19 08:46:09;;;;;;;8.02;3.22;;;;;;;13.99;58.71;102847.66;7390612;19;20039;-48
2023/05/19 08:48:40;;;;;;;7.95;3.00;;;;;;;14.01;58.58;102847.59;7391462;19;20022;-50
2023/05/19 08:51:21;;;;;;;9.80;3.00;;;;;;;14.05;58.61;102839.34;7392495;19;20373;-50
2023/05/19 08:53:56;;;;;;;8.18;3.13;;;;;;;14.21;58.11;102838.50;7391515;19;20039;-51
2023/05/19 08:56:25;;;;;;;7.78;3.20;;;;;;;14.17;57.89;102840.47;7388469;19;20495;-49
2023/05/19 08:58:53;;;;;;;10.38;3.67;;;;;;;14.15;57.82;102827.22;7390850;19;20018;-52
2023/05/19 09:01:21;;;;;;;11.90;3.88;;;;;;;14.27;57.42;102824.81;7391527;19;20026;-53
2023/05/19 09:03:48;;;;;;;11.10;3.58;;;;;;;14.33;57.87;102821.81;7391441;19;20025;-51
2023/05/19 09:06:16;;;;;;;12.75;4.70;;;;;;;14.40;57.66;102820.53;7390317;19;20018;-51
2023/05/19 09:08:43;;;;;;;10.15;3.75;;;;;;;14.53;57.07;102820.72;7390906;19;20018;-52
2023/05/19 09:11:10;;;;;;;11.15;4.30;;;;;;;14.50;57.08;102816.44;7391689;19;20090;-51
2023/05/19 09:13:38;;;;;;;11.57;3.90;;;;;;;14.59;56.96;102820.38;7390897;19;20014;-52
2023/05/19 09:16:05;;;;;;;10.77;3.45;;;;;;;14.57;56.56;102808.91;7389918;19;20022;-51
2023/05/19 09:18:32;;;;;;;8.30;3.00;;;;;;;14.68;55.69;102813.63;7390592;19;20019;-49
2023/05/19 09:21:01;;;;;;;9.40;3.03;;;;;;;14.70;55.32;102807.28;7391102;19;20102;-52
2023/05/19 09:23:35;;;;;;;11.45;2.85;;;;;;;14.72;54.70;102816.03;7391330;19;20494;-51
2023/05/19 09:26:06;;;;;;;9.57;3.03;;;;;;;14.72;54.94;102810.69;7390065;19;20063;-50
2023/05/19 09:28:35;;;;;;;8.40;2.92;;;;;;;14.75;55.17;102807.84;7389805;19;20017;-49
2023/05/19 09:31:06;;;;;;;9.23;3.55;;;;;;;14.89;54.66;102803.53;7390499;19;20455;-49
2023/05/19 09:33:38;;;;;;;10.07;3.83;;;;;;;15.00;53.72;102801.09;7390988;19;20029;-49
2023/05/19 09:36:07;;;;;;;8.20;2.60;;;;;;;14.98;52.87;102797.66;7389623;19;20094;-48
2023/05/19 09:38:35;;;;;;;7.55;2.55;;;;;;;15.10;52.48;102795.09;7395658;19;20024;-48
2023/05/19 09:41:03;;;;;;;7.72;2.00;;;;;;;15.23;51.89;102797.03;7398157;19;20022;-48
2023/05/19 09:43:34;;;;;;;9.25;2.47;;;;;;;15.25;51.83;102790.63;7398472;19;20030;-51
2023/05/19 09:46:06;;;;;;;8.15;2.30;;;;;;;15.33;52.50;102790.19;7396427;19;20054;-48
2023/05/19 09:48:35;;;;;;;8.73;2.35;;;;;;;15.39;52.19;102795.16;7397665;19;20099;-50
2023/05/19 09:51:06;;;;;;;7.88;2.60;;;;;;;15.55;51.26;102784.38;7397756;19;20022;-49
2023/05/19 09:53:34;;;;;;;8.10;1.90;;;;;;;15.56;50.31;102791.44;7397774;19;20018;-46
2023/05/19 09:56:02;;;;;;;5.43;2.05;;;;;;;15.66;49.82;102775.72;7396557;19;20018;-48
2023/05/19 09:58:34;;;;;;;8.82;2.10;;;;;;;15.92;48.84;102772.25;7394155;19;20021;-51
2023/05/19 10:01:03;;;;;;;8.38;2.83;;;;;;;16.09;48.13;102779.19;7397200;19;20040;-50
2023/05/19 10:03:31;;;;;;;8.50;2.20;;;;;;;16.13;47.25;102756.66;7396669;19;20018;-50
2023/05/19 10:06:00;;;;;;;10.07;2.80;;;;;;;16.15;46.86;102764.59;7392220;19;20046;-51
2023/05/19 10:08:29;;;;;;;8.02;2.40;;;;;;;16.22;46.84;102758.75;7394960;19;20035;-50
2023/05/19 10:10:57;;;;;;;5.43;1.80;;;;;;;16.42;45.59;102757.41;7397524;19;20129;-52
2023/05/19 10:13:24;;;;;;;4.72;1.77;;;;;;;16.62;44.58;102756.06;7395937;19;20054;-52
2023/05/19 10:15:52;;;;;;;8.05;2.17;;;;;;;16.72;43.88;102756.31;7395380;19;20583;-50
2023/05/19 10:18:25;;;;;;;7.57;2.13;;;;;;;16.62;44.89;102745.38;7393380;19;20119;-51
2023/05/19 10:20:53;;;;;;;7.43;1.80;;;;;;;16.63;45.04;102741.72;7396712;19;20042;-47
2023/05/19 10:23:21;;;;;;;5.18;1.88;;;;;;;16.39;45.17;102754.94;7396498;19;20026;-51
2023/05/19 10:25:51;;;;;;;6.25;1.80;;;;;;;16.28;44.58;102738.75;7394096;19;20018;-50
2023/05/19 10:28:24;;;;;;;7.10;1.73;;;;;;;16.31;44.42;102742.06;7396892;19;20016;-50
2023/05/19 10:30:55;;;;;;;6.53;2.00;;;;;;;16.28;44.28;102744.09;7396218;19;20059;-50
2023/05/19 10:33:37;;;;;;;5.18;1.67;;;;;;;16.41;44.49;102738.78;7394905;19;20015;-50
2023/05/19 10:36:13;;;;;;;8.32;1.70;;;;;;;16.32;44.23;102748.28;7393966;19;20018;-51
2023/05/19 10:38:47;;;;;;;7.70;1.85;;;;;;;16.29;44.26;102746.69;7392916;19;20667;-50
2023/05/19 10:41:27;;;;;;;9.52;2.08;;;;;;;16.42;44.20;102743.19;7394552;19;20026;-50
2023/05/19 10:44:11;;;;;;;14.80;2.88;;;;;;;16.55;44.79;102739.56;7396630;19;20019;-49
2023/05/19 10:46:42;;;;;;;13.40;2.55;;;;;;;16.52;44.91;102733.56;7394246;19;20025;-51
2023/05/19 10:49:09;;;;;;;9.25;2.60;;;;;;;16.44;44.54;102741.25;7394428;19;20039;-49
2023/05/19 10:51:36;;;;;;;24.60;3.55;;;;;;;16.42;44.43;102737.84;7395231;19;20046;-52
2023/05/19 10:54:12;;;;;;;10.48;2.38;;;;;;;16.50;44.40;102732.84;7394015;19;20013;-48
2023/05/19 10:56:44;;;;;;;6.20;2.00;;;;;;;16.51;44.04;102722.03;7394716;19;20026;-48
2023/05/19 10:59:31;;;;;;;5.78;1.80;;;;;;;16.60;43.36;102717.88;7394607;19;20014;-48
2023/05/19 11:02:06;;;;;;;8.02;1.88;;;;;;;16.73;43.11;102718.78;7395516;19;20539;-49
2023/05/19 11:04:49;;;;;;;9.80;2.15;;;;;;;17.02;41.69;102721.28;7394670;19;20031;-48
2023/05/19 11:07:19;;;;;;;;;;;;;;;16.95;41.52;102717.31;7394409;19;20078;-49
2023/05/19 11:09:50;;;;;;;9.88;1.98;;;;;;;16.99;42.37;102718.81;7392419;19;19919;-48
2023/05/19 11:12:21;;;;;;;7.63;2.00;;;;;;;17.18;41.70;102721.06;7395400;19;20030;-47
2023/05/19 11:14:54;;;;;;;5.57;1.67;;;;;;;17.39;41.29;102716.00;7393150;19;20203;-47
2023/05/19 11:17:24;;;;;;;4.70;2.00;;;;;;;17.59;40.60;102714.56;7393214;19;20090;-47
2023/05/19 11:19:54;;;;;;;7.88;2.13;;;;;;;17.50;40.81;102716.94;7393822;19;20027;-51
2023/05/19 11:22:24;;;;;;;8.63;2.10;;;;;;;17.28;41.17;102714.06;7393474;19;20043;-48
2023/05/19 11:24:55;;;;;;;7.63;2.05;;;;;;;17.19;41.37;102720.94;7390152;19;20471;-48
2023/05/19 11:27:33;;;;;;;9.65;1.73;;;;;;;17.03;41.81;102713.13;7389029;19;20034;-48
2023/05/19 11:30:13;;;;;;;5.40;1.38;;;;;;;17.16;41.89;102707.78;7392718;19;20022;-50
2023/05/19 11:32:43;;;;;;;7.68;1.95;;;;;;;17.38;41.44;102706.25;7392345;19;20044;-50